FIN weather

Flagler Executive Airport
Palm Coast, Florida, United States

Public forecast

Using degrees Fahrenheit for public forecast. Weather courtesy of forecast.io.

Current aviation weather report (METAR) for Flagler Executive Airport

Retrieved 2020/07/06 15:50 UTC (1 hour ago):

KFIN 061550Z 21006KT 10SM BKN028 BKN037 31/23 A3005

Closest aviation forecast (TAF) to Flagler Executive Airport

Closest forecast is Daytona Beach International Airport, 18.9 nm (35.0 km) SSE. Retrieved 2020/07/06 12:31 UTC (4 hours ago):

TAF KDAB 061128Z 0612/0712 20004KT P6SM SCT080 BKN250 FM061400 21005KT P6SM SCT035 BKN250 FM061700 16006KT P6SM SCT035 BKN250 FM061800 15008KT P6SM VCTS SCT035CB BKN060 TEMPO 0619/0621 VRB15G25KT 3SM TSRA BKN020CB BKN050 FM062100 15007KT P6SM VCSH SCT035 BKN100 FM070200 21004KT P6SM SCT120 BKN250 FM070400 20003KT P6SM SCT250